sensor_id;sensor_type;location;lat;lon;timestamp;P1;durP1;ratioP1;P2;durP2;ratioP2
34920;SDS011;21128;50.016;20.002;2023-01-30T00:00:58;60.50;;;30.57;;
34920;SDS011;21128;50.016;20.002;2023-01-30T00:03:27;57.45;;;30.60;;
34920;SDS011;21128;50.016;20.002;2023-01-30T00:05:55;56.00;;;30.10;;
34920;SDS011;21128;50.016;20.002;2023-01-30T00:08:22;61.73;;;31.50;;
34920;SDS011;21128;50.016;20.002;2023-01-30T00:10:49;60.25;;;30.85;;
34920;SDS011;21128;50.016;20.002;2023-01-30T00:13:16;66.25;;;31.95;;
34920;SDS011;21128;50.016;20.002;2023-01-30T00:15:43;59.55;;;30.95;;
34920;SDS011;21128;50.016;20.002;2023-01-30T00:18:10;59.20;;;30.57;;
34920;SDS011;21128;50.016;20.002;2023-01-30T00:20:37;59.80;;;29.57;;
34920;SDS011;21128;50.016;20.002;2023-01-30T00:23:04;57.25;;;31.00;;
34920;SDS011;21128;50.016;20.002;2023-01-30T00:25:31;66.40;;;32.13;;
34920;SDS011;21128;50.016;20.002;2023-01-30T00:27:59;56.87;;;32.30;;
34920;SDS011;21128;50.016;20.002;2023-01-30T00:30:27;63.85;;;31.82;;
34920;SDS011;21128;50.016;20.002;2023-01-30T00:32:55;57.20;;;29.97;;
34920;SDS011;21128;50.016;20.002;2023-01-30T00:35:23;62.47;;;31.23;;
34920;SDS011;21128;50.016;20.002;2023-01-30T00:37:57;63.37;;;32.20;;
34920;SDS011;21128;50.016;20.002;2023-01-30T00:40:25;62.80;;;33.13;;
34920;SDS011;21128;50.016;20.002;2023-01-30T00:42:53;58.15;;;31.20;;
34920;SDS011;21128;50.016;20.002;2023-01-30T00:45:40;58.13;;;32.23;;
34920;SDS011;21128;50.016;20.002;2023-01-30T00:48:28;63.07;;;32.50;;
34920;SDS011;21128;50.016;20.002;2023-01-30T00:50:56;59.93;;;32.67;;
34920;SDS011;21128;50.016;20.002;2023-01-30T00:53:23;61.83;;;30.90;;
34920;SDS011;21128;50.016;20.002;2023-01-30T00:55:50;57.23;;;29.83;;
34920;SDS011;21128;50.016;20.002;2023-01-30T00:58:19;62.80;;;31.20;;
34920;SDS011;21128;50.016;20.002;2023-01-30T01:00:47;63.07;;;32.90;;
34920;SDS011;21128;50.016;20.002;2023-01-30T01:03:15;62.20;;;31.23;;
34920;SDS011;21128;50.016;20.002;2023-01-30T01:05:43;63.53;;;33.03;;
34920;SDS011;21128;50.016;20.002;2023-01-30T01:08:10;65.97;;;32.77;;
34920;SDS011;21128;50.016;20.002;2023-01-30T01:10:38;62.50;;;31.27;;
34920;SDS011;21128;50.016;20.002;2023-01-30T01:13:05;65.73;;;31.17;;
34920;SDS011;21128;50.016;20.002;2023-01-30T01:15:32;63.43;;;32.27;;
34920;SDS011;21128;50.016;20.002;2023-01-30T01:18:00;64.13;;;32.53;;
34920;SDS011;21128;50.016;20.002;2023-01-30T01:20:27;68.67;;;32.53;;
34920;SDS011;21128;50.016;20.002;2023-01-30T01:22:54;64.50;;;31.60;;
34920;SDS011;21128;50.016;20.002;2023-01-30T01:25:23;60.07;;;32.20;;
34920;SDS011;21128;50.016;20.002;2023-01-30T01:27:51;69.87;;;34.23;;
34920;SDS011;21128;50.016;20.002;2023-01-30T01:30:18;63.53;;;32.80;;
34920;SDS011;21128;50.016;20.002;2023-01-30T01:32:45;67.63;;;32.13;;
34920;SDS011;21128;50.016;20.002;2023-01-30T01:35:12;63.80;;;32.10;;
34920;SDS011;21128;50.016;20.002;2023-01-30T01:37:39;64.90;;;33.47;;
34920;SDS011;21128;50.016;20.002;2023-01-30T01:40:06;71.20;;;34.50;;
34920;SDS011;21128;50.016;20.002;2023-01-30T01:42:54;65.13;;;33.33;;
34920;SDS011;21128;50.016;20.002;2023-01-30T01:45:22;57.67;;;30.40;;
34920;SDS011;21128;50.016;20.002;2023-01-30T01:53:09;65.27;;;32.40;;
34920;SDS011;21128;50.016;20.002;2023-01-30T01:55:39;60.80;;;32.70;;
34920;SDS011;21128;50.016;20.002;2023-01-30T01:58:10;62.57;;;33.17;;
34920;SDS011;21128;50.016;20.002;2023-01-30T02:00:43;66.20;;;33.70;;
34920;SDS011;21128;50.016;20.002;2023-01-30T02:03:11;63.95;;;34.03;;
34920;SDS011;21128;50.016;20.002;2023-01-30T02:05:47;66.30;;;32.55;;
34920;SDS011;21128;50.016;20.002;2023-01-30T02:08:20;62.80;;;33.00;;
34920;SDS011;21128;50.016;20.002;2023-01-30T02:13:40;69.23;;;33.93;;
34920;SDS011;21128;50.016;20.002;2023-01-30T02:16:09;64.37;;;33.70;;
34920;SDS011;21128;50.016;20.002;2023-01-30T02:18:37;62.10;;;31.70;;
34920;SDS011;21128;50.016;20.002;2023-01-30T02:34:40;59.70;;;30.87;;
34920;SDS011;21128;50.016;20.002;2023-01-30T02:37:30;61.70;;;32.13;;
34920;SDS011;21128;50.016;20.002;2023-01-30T02:40:27;64.33;;;32.40;;
34920;SDS011;21128;50.016;20.002;2023-01-30T02:48:38;54.53;;;29.40;;
34920;SDS011;21128;50.016;20.002;2023-01-30T02:51:20;61.33;;;30.47;;
34920;SDS011;21128;50.016;20.002;2023-01-30T02:53:52;60.65;;;29.90;;
34920;SDS011;21128;50.016;20.002;2023-01-30T02:56:20;55.53;;;28.57;;
34920;SDS011;21128;50.016;20.002;2023-01-30T02:58:47;56.20;;;28.52;;
34920;SDS011;21128;50.016;20.002;2023-01-30T03:09:57;52.20;;;27.10;;
34920;SDS011;21128;50.016;20.002;2023-01-30T03:15:28;51.70;;;28.33;;
34920;SDS011;21128;50.016;20.002;2023-01-30T03:18:01;52.90;;;27.83;;
34920;SDS011;21128;50.016;20.002;2023-01-30T03:20:29;52.75;;;28.90;;
34920;SDS011;21128;50.016;20.002;2023-01-30T03:23:02;60.83;;;29.03;;
34920;SDS011;21128;50.016;20.002;2023-01-30T03:25:29;49.00;;;28.37;;
34920;SDS011;21128;50.016;20.002;2023-01-30T03:27:57;52.13;;;27.73;;
34920;SDS011;21128;50.016;20.002;2023-01-30T03:30:27;56.97;;;28.40;;
34920;SDS011;21128;50.016;20.002;2023-01-30T03:32:54;56.65;;;29.27;;
34920;SDS011;21128;50.016;20.002;2023-01-30T03:35:20;57.93;;;28.87;;
34920;SDS011;21128;50.016;20.002;2023-01-30T03:37:48;50.53;;;28.33;;
34920;SDS011;21128;50.016;20.002;2023-01-30T03:40:15;59.10;;;30.00;;
34920;SDS011;21128;50.016;20.002;2023-01-30T03:42:43;54.80;;;29.80;;
34920;SDS011;21128;50.016;20.002;2023-01-30T03:45:10;54.30;;;28.60;;
34920;SDS011;21128;50.016;20.002;2023-01-30T03:47:37;58.63;;;30.17;;
34920;SDS011;21128;50.016;20.002;2023-01-30T03:50:04;48.03;;;26.30;;
34920;SDS011;21128;50.016;20.002;2023-01-30T03:52:33;59.63;;;27.40;;
34920;SDS011;21128;50.016;20.002;2023-01-30T03:55:01;52.37;;;25.53;;
34920;SDS011;21128;50.016;20.002;2023-01-30T03:57:28;44.00;;;22.73;;
34920;SDS011;21128;50.016;20.002;2023-01-30T03:59:55;40.37;;;23.13;;
34920;SDS011;21128;50.016;20.002;2023-01-30T04:02:23;40.50;;;23.20;;
34920;SDS011;21128;50.016;20.002;2023-01-30T04:04:51;42.10;;;23.70;;
34920;SDS011;21128;50.016;20.002;2023-01-30T04:07:19;43.55;;;22.40;;
34920;SDS011;21128;50.016;20.002;2023-01-30T04:09:46;43.68;;;22.82;;
34920;SDS011;21128;50.016;20.002;2023-01-30T04:12:13;40.07;;;23.40;;
34920;SDS011;21128;50.016;20.002;2023-01-30T04:14:40;45.97;;;24.23;;
34920;SDS011;21128;50.016;20.002;2023-01-30T04:17:07;41.77;;;23.47;;
34920;SDS011;21128;50.016;20.002;2023-01-30T04:19:34;48.87;;;26.57;;
34920;SDS011;21128;50.016;20.002;2023-01-30T04:22:01;43.97;;;25.23;;
34920;SDS011;21128;50.016;20.002;2023-01-30T04:24:28;43.95;;;23.95;;
34920;SDS011;21128;50.016;20.002;2023-01-30T04:26:55;46.80;;;27.30;;
34920;SDS011;21128;50.016;20.002;2023-01-30T04:29:21;48.13;;;24.40;;
34920;SDS011;21128;50.016;20.002;2023-01-30T04:31:48;45.12;;;25.12;;
34920;SDS011;21128;50.016;20.002;2023-01-30T04:34:15;47.20;;;25.27;;
34920;SDS011;21128;50.016;20.002;2023-01-30T04:36:45;45.13;;;24.50;;
34920;SDS011;21128;50.016;20.002;2023-01-30T04:39:12;47.70;;;25.92;;
34920;SDS011;21128;50.016;20.002;2023-01-30T04:41:39;43.60;;;24.47;;
34920;SDS011;21128;50.016;20.002;2023-01-30T04:44:11;46.57;;;23.87;;
34920;SDS011;21128;50.016;20.002;2023-01-30T04:46:38;41.53;;;24.32;;
34920;SDS011;21128;50.016;20.002;2023-01-30T04:49:04;46.80;;;23.30;;
34920;SDS011;21128;50.016;20.002;2023-01-30T04:51:31;46.95;;;25.55;;
34920;SDS011;21128;50.016;20.002;2023-01-30T04:53:58;44.23;;;25.32;;
34920;SDS011;21128;50.016;20.002;2023-01-30T04:56:25;42.57;;;22.50;;
34920;SDS011;21128;50.016;20.002;2023-01-30T04:58:52;47.97;;;24.47;;
34920;SDS011;21128;50.016;20.002;2023-01-30T05:01:24;39.53;;;22.70;;
34920;SDS011;21128;50.016;20.002;2023-01-30T05:04:00;44.37;;;22.67;;
34920;SDS011;21128;50.016;20.002;2023-01-30T05:06:27;48.37;;;24.50;;
34920;SDS011;21128;50.016;20.002;2023-01-30T05:08:57;39.97;;;24.23;;
34920;SDS011;21128;50.016;20.002;2023-01-30T05:11:25;44.30;;;25.00;;
34920;SDS011;21128;50.016;20.002;2023-01-30T05:13:55;42.80;;;22.50;;
34920;SDS011;21128;50.016;20.002;2023-01-30T05:16:22;37.93;;;18.73;;
34920;SDS011;21128;50.016;20.002;2023-01-30T05:18:50;43.80;;;24.00;;
34920;SDS011;21128;50.016;20.002;2023-01-30T05:21:18;39.18;;;21.97;;
34920;SDS011;21128;50.016;20.002;2023-01-30T05:23:47;47.90;;;24.37;;
34920;SDS011;21128;50.016;20.002;2023-01-30T05:26:15;45.37;;;25.83;;
34920;SDS011;21128;50.016;20.002;2023-01-30T05:28:42;47.27;;;25.32;;
34920;SDS011;21128;50.016;20.002;2023-01-30T05:31:09;45.80;;;25.03;;
34920;SDS011;21128;50.016;20.002;2023-01-30T05:33:38;52.63;;;26.80;;
34920;SDS011;21128;50.016;20.002;2023-01-30T05:36:07;51.40;;;26.60;;
34920;SDS011;21128;50.016;20.002;2023-01-30T05:38:39;47.03;;;26.90;;
34920;SDS011;21128;50.016;20.002;2023-01-30T05:41:06;45.30;;;24.95;;
34920;SDS011;21128;50.016;20.002;2023-01-30T05:43:33;48.97;;;26.07;;
34920;SDS011;21128;50.016;20.002;2023-01-30T05:46:02;53.07;;;26.40;;
34920;SDS011;21128;50.016;20.002;2023-01-30T05:48:31;46.20;;;25.10;;
34920;SDS011;21128;50.016;20.002;2023-01-30T05:50:59;44.90;;;25.63;;
34920;SDS011;21128;50.016;20.002;2023-01-30T05:53:28;47.60;;;25.85;;
34920;SDS011;21128;50.016;20.002;2023-01-30T05:55:58;50.87;;;26.10;;
34920;SDS011;21128;50.016;20.002;2023-01-30T05:58:31;47.30;;;24.67;;
34920;SDS011;21128;50.016;20.002;2023-01-30T06:01:02;45.95;;;25.05;;
34920;SDS011;21128;50.016;20.002;2023-01-30T06:03:31;48.50;;;26.35;;
34920;SDS011;21128;50.016;20.002;2023-01-30T06:06:00;46.43;;;26.90;;
34920;SDS011;21128;50.016;20.002;2023-01-30T06:08:28;46.90;;;24.97;;
34920;SDS011;21128;50.016;20.002;2023-01-30T06:11:02;48.70;;;26.37;;
34920;SDS011;21128;50.016;20.002;2023-01-30T06:13:32;42.83;;;23.53;;
34920;SDS011;21128;50.016;20.002;2023-01-30T06:16:00;38.83;;;22.90;;
34920;SDS011;21128;50.016;20.002;2023-01-30T06:18:27;38.40;;;21.83;;
34920;SDS011;21128;50.016;20.002;2023-01-30T06:20:54;36.63;;;20.97;;
34920;SDS011;21128;50.016;20.002;2023-01-30T06:23:22;39.67;;;20.83;;
34920;SDS011;21128;50.016;20.002;2023-01-30T06:25:49;40.87;;;20.53;;
34920;SDS011;21128;50.016;20.002;2023-01-30T06:28:18;40.03;;;21.17;;
34920;SDS011;21128;50.016;20.002;2023-01-30T06:30:45;31.93;;;17.53;;
34920;SDS011;21128;50.016;20.002;2023-01-30T06:33:12;38.28;;;19.17;;
34920;SDS011;21128;50.016;20.002;2023-01-30T06:35:40;34.87;;;19.33;;
34920;SDS011;21128;50.016;20.002;2023-01-30T06:38:08;31.13;;;17.50;;
34920;SDS011;21128;50.016;20.002;2023-01-30T06:40:37;31.60;;;17.80;;
34920;SDS011;21128;50.016;20.002;2023-01-30T06:43:04;32.83;;;17.70;;
34920;SDS011;21128;50.016;20.002;2023-01-30T06:45:31;33.63;;;17.17;;
34920;SDS011;21128;50.016;20.002;2023-01-30T06:47:58;31.97;;;18.07;;
34920;SDS011;21128;50.016;20.002;2023-01-30T06:50:26;34.25;;;17.05;;
34920;SDS011;21128;50.016;20.002;2023-01-30T06:52:55;33.00;;;14.80;;
34920;SDS011;21128;50.016;20.002;2023-01-30T06:55:24;27.87;;;15.50;;
34920;SDS011;21128;50.016;20.002;2023-01-30T06:58:03;31.43;;;17.00;;
34920;SDS011;21128;50.016;20.002;2023-01-30T07:00:32;27.00;;;14.93;;
34920;SDS011;21128;50.016;20.002;2023-01-30T07:03:00;34.33;;;16.03;;
34920;SDS011;21128;50.016;20.002;2023-01-30T07:05:27;26.90;;;15.40;;
34920;SDS011;21128;50.016;20.002;2023-01-30T07:07:55;28.73;;;14.13;;
34920;SDS011;21128;50.016;20.002;2023-01-30T07:10:22;32.13;;;16.30;;
34920;SDS011;21128;50.016;20.002;2023-01-30T07:12:51;27.70;;;15.10;;
34920;SDS011;21128;50.016;20.002;2023-01-30T07:15:19;25.70;;;15.05;;
34920;SDS011;21128;50.016;20.002;2023-01-30T07:17:46;27.82;;;14.35;;
34920;SDS011;21128;50.016;20.002;2023-01-30T07:20:13;29.85;;;15.80;;
34920;SDS011;21128;50.016;20.002;2023-01-30T07:22:40;28.57;;;13.28;;
34920;SDS011;21128;50.016;20.002;2023-01-30T07:25:07;28.47;;;13.53;;
34920;SDS011;21128;50.016;20.002;2023-01-30T07:27:35;22.20;;;12.83;;
34920;SDS011;21128;50.016;20.002;2023-01-30T07:30:02;18.67;;;12.13;;
34920;SDS011;21128;50.016;20.002;2023-01-30T07:32:29;23.83;;;13.37;;
34920;SDS011;21128;50.016;20.002;2023-01-30T07:34:56;24.50;;;11.12;;
34920;SDS011;21128;50.016;20.002;2023-01-30T07:37:23;20.27;;;12.47;;
34920;SDS011;21128;50.016;20.002;2023-01-30T07:39:50;21.53;;;13.00;;
34920;SDS011;21128;50.016;20.002;2023-01-30T07:42:17;28.80;;;11.28;;
34920;SDS011;21128;50.016;20.002;2023-01-30T07:44:44;21.73;;;11.33;;
34920;SDS011;21128;50.016;20.002;2023-01-30T07:47:11;22.22;;;11.90;;
34920;SDS011;21128;50.016;20.002;2023-01-30T07:49:38;19.45;;;10.65;;
34920;SDS011;21128;50.016;20.002;2023-01-30T07:52:05;22.50;;;12.10;;
34920;SDS011;21128;50.016;20.002;2023-01-30T07:54:31;20.20;;;11.78;;
34920;SDS011;21128;50.016;20.002;2023-01-30T07:56:58;23.75;;;11.70;;
34920;SDS011;21128;50.016;20.002;2023-01-30T07:59:25;21.00;;;12.00;;
34920;SDS011;21128;50.016;20.002;2023-01-30T08:01:53;18.73;;;12.57;;
34920;SDS011;21128;50.016;20.002;2023-01-30T08:04:20;26.55;;;13.55;;
34920;SDS011;21128;50.016;20.002;2023-01-30T08:06:46;24.70;;;13.63;;
34920;SDS011;21128;50.016;20.002;2023-01-30T08:09:13;23.55;;;14.18;;
34920;SDS011;21128;50.016;20.002;2023-01-30T08:11:40;26.60;;;14.80;;
34920;SDS011;21128;50.016;20.002;2023-01-30T08:14:07;26.82;;;14.43;;
34920;SDS011;21128;50.016;20.002;2023-01-30T08:16:34;24.43;;;14.57;;
34920;SDS011;21128;50.016;20.002;2023-01-30T08:19:02;26.30;;;15.57;;
34920;SDS011;21128;50.016;20.002;2023-01-30T08:21:31;25.57;;;14.37;;
34920;SDS011;21128;50.016;20.002;2023-01-30T08:23:58;28.33;;;15.17;;
34920;SDS011;21128;50.016;20.002;2023-01-30T08:26:26;30.62;;;14.63;;
34920;SDS011;21128;50.016;20.002;2023-01-30T08:28:53;25.70;;;14.37;;
34920;SDS011;21128;50.016;20.002;2023-01-30T08:31:21;27.13;;;15.50;;
34920;SDS011;21128;50.016;20.002;2023-01-30T08:33:49;30.30;;;15.23;;
34920;SDS011;21128;50.016;20.002;2023-01-30T08:36:16;29.80;;;14.97;;
34920;SDS011;21128;50.016;20.002;2023-01-30T08:38:42;25.67;;;15.30;;
34920;SDS011;21128;50.016;20.002;2023-01-30T08:41:09;33.07;;;14.20;;
34920;SDS011;21128;50.016;20.002;2023-01-30T08:43:36;28.20;;;13.60;;
34920;SDS011;21128;50.016;20.002;2023-01-30T08:46:03;28.70;;;14.97;;
34920;SDS011;21128;50.016;20.002;2023-01-30T08:48:31;28.57;;;13.67;;
34920;SDS011;21128;50.016;20.002;2023-01-30T08:50:58;24.97;;;14.27;;
34920;SDS011;21128;50.016;20.002;2023-01-30T08:53:25;21.20;;;13.47;;
34920;SDS011;21128;50.016;20.002;2023-01-30T08:55:52;24.90;;;13.83;;
34920;SDS011;21128;50.016;20.002;2023-01-30T08:58:20;21.45;;;13.10;;
34920;SDS011;21128;50.016;20.002;2023-01-30T09:00:47;21.17;;;14.03;;
34920;SDS011;21128;50.016;20.002;2023-01-30T09:03:16;25.93;;;14.07;;
34920;SDS011;21128;50.016;20.002;2023-01-30T09:05:45;22.30;;;13.50;;
34920;SDS011;21128;50.016;20.002;2023-01-30T09:08:12;25.23;;;13.37;;
34920;SDS011;21128;50.016;20.002;2023-01-30T09:10:39;27.40;;;15.00;;
34920;SDS011;21128;50.016;20.002;2023-01-30T09:13:07;22.70;;;13.70;;
34920;SDS011;21128;50.016;20.002;2023-01-30T09:15:35;25.57;;;12.20;;
34920;SDS011;21128;50.016;20.002;2023-01-30T09:18:03;21.20;;;12.07;;
34920;SDS011;21128;50.016;20.002;2023-01-30T09:20:30;18.90;;;11.83;;
34920;SDS011;21128;50.016;20.002;2023-01-30T09:22:58;17.77;;;11.57;;
34920;SDS011;21128;50.016;20.002;2023-01-30T09:25:26;17.93;;;12.40;;
34920;SDS011;21128;50.016;20.002;2023-01-30T09:27:53;20.43;;;11.27;;
34920;SDS011;21128;50.016;20.002;2023-01-30T09:30:20;23.57;;;11.07;;
34920;SDS011;21128;50.016;20.002;2023-01-30T09:32:47;21.30;;;11.23;;
34920;SDS011;21128;50.016;20.002;2023-01-30T09:35:14;19.73;;;9.90;;
34920;SDS011;21128;50.016;20.002;2023-01-30T09:37:45;22.05;;;11.43;;
34920;SDS011;21128;50.016;20.002;2023-01-30T09:40:17;20.03;;;11.73;;
34920;SDS011;21128;50.016;20.002;2023-01-30T09:55:59;16.13;;;10.57;;
34920;SDS011;21128;50.016;20.002;2023-01-30T09:58:47;17.17;;;10.50;;
34920;SDS011;21128;50.016;20.002;2023-01-30T10:01:22;20.57;;;11.50;;
34920;SDS011;21128;50.016;20.002;2023-01-30T10:03:54;17.30;;;11.10;;
34920;SDS011;21128;50.016;20.002;2023-01-30T10:06:50;25.73;;;11.53;;
34920;SDS011;21128;50.016;20.002;2023-01-30T10:28:26;17.30;;;10.83;;
34920;SDS011;21128;50.016;20.002;2023-01-30T10:30:57;15.65;;;9.75;;
34920;SDS011;21128;50.016;20.002;2023-01-30T10:33:32;18.87;;;10.00;;
34920;SDS011;21128;50.016;20.002;2023-01-30T10:36:07;17.77;;;11.70;;
34920;SDS011;21128;50.016;20.002;2023-01-30T10:38:49;19.87;;;11.03;;
34920;SDS011;21128;50.016;20.002;2023-01-30T10:44:07;15.07;;;10.00;;
34920;SDS011;21128;50.016;20.002;2023-01-30T10:46:53;17.60;;;10.67;;
34920;SDS011;21128;50.016;20.002;2023-01-30T10:55:18;15.40;;;10.23;;
34920;SDS011;21128;50.016;20.002;2023-01-30T10:58:07;15.37;;;10.17;;
34920;SDS011;21128;50.016;20.002;2023-01-30T11:01:05;14.28;;;9.65;;
34920;SDS011;21128;50.016;20.002;2023-01-30T11:06:22;16.60;;;10.73;;
34920;SDS011;21128;50.016;20.002;2023-01-30T11:08:52;18.33;;;11.07;;
34920;SDS011;21128;50.016;20.002;2023-01-30T11:11:32;22.13;;;10.57;;
34920;SDS011;21128;50.016;20.002;2023-01-30T11:14:12;19.17;;;11.60;;
34920;SDS011;21128;50.016;20.002;2023-01-30T11:16:49;17.73;;;10.57;;
34920;SDS011;21128;50.016;20.002;2023-01-30T11:19:21;19.17;;;11.10;;
34920;SDS011;21128;50.016;20.002;2023-01-30T11:22:00;18.07;;;11.80;;
34920;SDS011;21128;50.016;20.002;2023-01-30T11:24:30;19.87;;;11.30;;
34920;SDS011;21128;50.016;20.002;2023-01-30T11:29:43;20.50;;;11.90;;
34920;SDS011;21128;50.016;20.002;2023-01-30T11:32:11;19.43;;;11.50;;
34920;SDS011;21128;50.016;20.002;2023-01-30T11:37:35;16.12;;;10.85;;
34920;SDS011;21128;50.016;20.002;2023-01-30T11:40:14;18.80;;;10.53;;
34920;SDS011;21128;50.016;20.002;2023-01-30T11:42:48;16.23;;;11.47;;
34920;SDS011;21128;50.016;20.002;2023-01-30T11:45:17;18.53;;;10.60;;
34920;SDS011;21128;50.016;20.002;2023-01-30T11:47:48;17.90;;;12.60;;
34920;SDS011;21128;50.016;20.002;2023-01-30T11:50:27;18.37;;;13.32;;
34920;SDS011;21128;50.016;20.002;2023-01-30T11:53:02;22.00;;;13.07;;
34920;SDS011;21128;50.016;20.002;2023-01-30T11:55:34;24.65;;;14.70;;
34920;SDS011;21128;50.016;20.002;2023-01-30T11:58:04;22.93;;;13.50;;
34920;SDS011;21128;50.016;20.002;2023-01-30T12:00:37;19.23;;;12.97;;
34920;SDS011;21128;50.016;20.002;2023-01-30T12:03:08;23.17;;;12.83;;
34920;SDS011;21128;50.016;20.002;2023-01-30T12:05:38;17.92;;;12.13;;
34920;SDS011;21128;50.016;20.002;2023-01-30T12:08:10;22.67;;;14.33;;
34920;SDS011;21128;50.016;20.002;2023-01-30T12:10:43;22.87;;;12.87;;
34920;SDS011;21128;50.016;20.002;2023-01-30T12:16:40;20.20;;;13.77;;
34920;SDS011;21128;50.016;20.002;2023-01-30T12:21:58;22.43;;;13.33;;
34920;SDS011;21128;50.016;20.002;2023-01-30T12:24:30;22.27;;;14.53;;
34920;SDS011;21128;50.016;20.002;2023-01-30T12:27:12;27.73;;;15.40;;
34920;SDS011;21128;50.016;20.002;2023-01-30T12:29:58;25.37;;;14.47;;
34920;SDS011;21128;50.016;20.002;2023-01-30T12:32:30;25.93;;;14.67;;
34920;SDS011;21128;50.016;20.002;2023-01-30T12:35:01;23.37;;;14.60;;
34920;SDS011;21128;50.016;20.002;2023-01-30T12:37:45;22.33;;;15.17;;
34920;SDS011;21128;50.016;20.002;2023-01-30T13:00:05;21.77;;;15.00;;
34920;SDS011;21128;50.016;20.002;2023-01-30T13:02:44;22.60;;;14.03;;
34920;SDS011;21128;50.016;20.002;2023-01-30T13:11:03;23.40;;;14.43;;
34920;SDS011;21128;50.016;20.002;2023-01-30T13:13:50;21.50;;;15.60;;
34920;SDS011;21128;50.016;20.002;2023-01-30T13:19:15;23.47;;;14.53;;
34920;SDS011;21128;50.016;20.002;2023-01-30T13:22:00;23.73;;;13.90;;
34920;SDS011;21128;50.016;20.002;2023-01-30T13:27:12;23.12;;;13.75;;
34920;SDS011;21128;50.016;20.002;2023-01-30T13:29:43;23.92;;;14.05;;
34920;SDS011;21128;50.016;20.002;2023-01-30T13:32:29;23.80;;;15.13;;
34920;SDS011;21128;50.016;20.002;2023-01-30T13:37:58;22.83;;;14.50;;
34920;SDS011;21128;50.016;20.002;2023-01-30T13:40:34;25.67;;;13.57;;
34920;SDS011;21128;50.016;20.002;2023-01-30T13:45:49;21.17;;;13.53;;
34920;SDS011;21128;50.016;20.002;2023-01-30T14:08:28;20.77;;;13.07;;
34920;SDS011;21128;50.016;20.002;2023-01-30T14:11:00;21.20;;;11.97;;
34920;SDS011;21128;50.016;20.002;2023-01-30T14:13:28;22.07;;;14.53;;
34920;SDS011;21128;50.016;20.002;2023-01-30T14:15:56;23.07;;;12.87;;
34920;SDS011;21128;50.016;20.002;2023-01-30T14:18:27;25.57;;;12.97;;
34920;SDS011;21128;50.016;20.002;2023-01-30T14:21:15;23.73;;;14.60;;
34920;SDS011;21128;50.016;20.002;2023-01-30T14:23:55;17.83;;;12.70;;
34920;SDS011;21128;50.016;20.002;2023-01-30T14:51:28;17.98;;;11.70;;
34920;SDS011;21128;50.016;20.002;2023-01-30T14:56:41;21.33;;;12.77;;
34920;SDS011;21128;50.016;20.002;2023-01-30T15:04:26;17.37;;;10.70;;
34920;SDS011;21128;50.016;20.002;2023-01-30T15:07:06;16.83;;;11.93;;
34920;SDS011;21128;50.016;20.002;2023-01-30T15:09:37;17.70;;;12.35;;
34920;SDS011;21128;50.016;20.002;2023-01-30T15:12:14;19.70;;;12.00;;
34920;SDS011;21128;50.016;20.002;2023-01-30T15:31:20;19.10;;;12.67;;
34920;SDS011;21128;50.016;20.002;2023-01-30T15:33:50;13.43;;;8.83;;
34920;SDS011;21128;50.016;20.002;2023-01-30T15:36:40;18.63;;;11.57;;
34920;SDS011;21128;50.016;20.002;2023-01-30T15:39:23;21.10;;;11.60;;
34920;SDS011;21128;50.016;20.002;2023-01-30T15:41:54;19.77;;;11.73;;
34920;SDS011;21128;50.016;20.002;2023-01-30T15:52:29;18.67;;;11.87;;
34920;SDS011;21128;50.016;20.002;2023-01-30T15:55:05;20.60;;;11.97;;
34920;SDS011;21128;50.016;20.002;2023-01-30T15:57:40;19.73;;;12.13;;
34920;SDS011;21128;50.016;20.002;2023-01-30T16:00:12;20.07;;;12.63;;
34920;SDS011;21128;50.016;20.002;2023-01-30T16:02:49;20.00;;;12.03;;
34920;SDS011;21128;50.016;20.002;2023-01-30T16:05:18;19.23;;;12.43;;
34920;SDS011;21128;50.016;20.002;2023-01-30T16:07:48;19.73;;;12.60;;
34920;SDS011;21128;50.016;20.002;2023-01-30T16:10:18;17.53;;;11.93;;
34920;SDS011;21128;50.016;20.002;2023-01-30T16:12:48;18.30;;;10.80;;
34920;SDS011;21128;50.016;20.002;2023-01-30T16:15:22;20.00;;;12.83;;
34920;SDS011;21128;50.016;20.002;2023-01-30T16:17:59;17.17;;;11.60;;
34920;SDS011;21128;50.016;20.002;2023-01-30T16:20:28;19.23;;;12.10;;
34920;SDS011;21128;50.016;20.002;2023-01-30T16:23:19;18.57;;;12.10;;
34920;SDS011;21128;50.016;20.002;2023-01-30T16:25:56;20.40;;;12.10;;
34920;SDS011;21128;50.016;20.002;2023-01-30T16:28:30;22.10;;;11.73;;
34920;SDS011;21128;50.016;20.002;2023-01-30T16:30:59;19.27;;;12.47;;
34920;SDS011;21128;50.016;20.002;2023-01-30T16:33:38;18.23;;;11.87;;
34920;SDS011;21128;50.016;20.002;2023-01-30T16:36:14;18.53;;;11.67;;
34920;SDS011;21128;50.016;20.002;2023-01-30T16:39:00;17.87;;;12.33;;
34920;SDS011;21128;50.016;20.002;2023-01-30T16:44:20;20.80;;;12.33;;
34920;SDS011;21128;50.016;20.002;2023-01-30T16:52:01;18.02;;;11.70;;
34920;SDS011;21128;50.016;20.002;2023-01-30T16:54:51;18.90;;;11.13;;
34920;SDS011;21128;50.016;20.002;2023-01-30T17:00:23;15.93;;;10.23;;
34920;SDS011;21128;50.016;20.002;2023-01-30T17:02:58;15.90;;;9.87;;
34920;SDS011;21128;50.016;20.002;2023-01-30T17:05:29;17.17;;;10.07;;
34920;SDS011;21128;50.016;20.002;2023-01-30T17:08:03;18.53;;;9.57;;
34920;SDS011;21128;50.016;20.002;2023-01-30T17:18:58;13.63;;;8.13;;
34920;SDS011;21128;50.016;20.002;2023-01-30T17:21:58;14.27;;;8.87;;
34920;SDS011;21128;50.016;20.002;2023-01-30T17:24:31;11.93;;;7.90;;
34920;SDS011;21128;50.016;20.002;2023-01-30T17:27:01;15.47;;;7.77;;
34920;SDS011;21128;50.016;20.002;2023-01-30T17:30:13;11.63;;;7.90;;
34920;SDS011;21128;50.016;20.002;2023-01-30T17:32:41;14.00;;;8.80;;
34920;SDS011;21128;50.016;20.002;2023-01-30T17:35:10;13.30;;;9.08;;
34920;SDS011;21128;50.016;20.002;2023-01-30T17:37:37;17.23;;;9.30;;
34920;SDS011;21128;50.016;20.002;2023-01-30T17:40:15;19.05;;;11.22;;
34920;SDS011;21128;50.016;20.002;2023-01-30T17:42:43;14.77;;;7.90;;
34920;SDS011;21128;50.016;20.002;2023-01-30T17:45:12;14.20;;;8.80;;
34920;SDS011;21128;50.016;20.002;2023-01-30T17:47:41;13.97;;;9.23;;
34920;SDS011;21128;50.016;20.002;2023-01-30T17:50:14;14.43;;;8.80;;
34920;SDS011;21128;50.016;20.002;2023-01-30T17:52:41;14.37;;;8.83;;
34920;SDS011;21128;50.016;20.002;2023-01-30T17:55:11;14.00;;;8.70;;
34920;SDS011;21128;50.016;20.002;2023-01-30T17:57:41;14.73;;;8.93;;
34920;SDS011;21128;50.016;20.002;2023-01-30T18:00:15;14.00;;;8.70;;
34920;SDS011;21128;50.016;20.002;2023-01-30T18:02:44;15.40;;;9.47;;
34920;SDS011;21128;50.016;20.002;2023-01-30T18:05:12;17.00;;;8.73;;
34920;SDS011;21128;50.016;20.002;2023-01-30T18:07:39;14.53;;;8.30;;
34920;SDS011;21128;50.016;20.002;2023-01-30T18:10:09;14.73;;;7.90;;
34920;SDS011;21128;50.016;20.002;2023-01-30T18:12:39;12.63;;;8.37;;
34920;SDS011;21128;50.016;20.002;2023-01-30T18:15:08;13.47;;;7.73;;
34920;SDS011;21128;50.016;20.002;2023-01-30T18:17:35;11.73;;;6.83;;
34920;SDS011;21128;50.016;20.002;2023-01-30T18:20:10;11.10;;;6.43;;